Brevik, Minnesota
Current Conditions -  °F | °C
As of 2:36 AM on Friday 28 Nov 2014 (Local Time) from KXVG Reporting Station
Overcast Overcast  
Wind Chill:   Ceiling: 6000
Heat Index:   Visibility: 10mi
Dew Point:   Wind: 3mph
Humidity: 79%   Direction: 100°E
Pressure: 30.08"   Gusts: NA
Location:  47.0632°N, 94.1534°W
Report Text: KXVG 280836Z AUTO 10003KT 10SM SCT045 OVC060 M14/M17 A3008 RMK AO2
Loading
Personal Weather Stations






























Interactive Weather Map New forecast layout! Learn more

10-Day Weather Forecast

Advertisements
Track Severe Weather on mobile